MET'MAP v2.0
soon released !

Expected late october,
this new version will be
more efficient, smarter,
and hosted on a brand new
server x3 powerfull...
...and still free !


Not compatible ?
Try the mobile version !

LOG IN : | Subscribe | Disclaimer | Who is Orbifly ? |
ICAO code :

TAF - EHKD Den Helder De Kooy - 21 Feb 2020 04:46 UTC
Data Sources :     NOAA   


- Airport Elevation : 3 ft
- IATA code : DHR
- No reported NOTAMs.


EHKD - Den Helder De Kooy

Latest METAR recorded : 2015/08/11 07:55 EHKD 110755Z AUTO 26004KT 9999 BKN031 BKN035 19/17 Q1017 BLU 30005KT 9999 FEW010 SCT030 BKN220 TEMPO SCT008 BKN012
TAF TAF EHKD
Valid from the 21 at 02:00 until the 21 at 14:00 UTC


210121Z 2102/2114 28025G35KT 9999 SCT025
BECMG 2103/2105 25020KT
BECMG 2111/2113 23025G35KT

Source NOAA


MET'MAP, your aeronautical weather chart ! - Copyright ORBIFLY December 2007

Programming & Development : Alexandra Zaïnal
Co-Developer : Marc-Olivier Méhu
Technical & hardware support : Manuel Goepfert
Concept & Financing : Baudouin d'Aumeries